Ovid, New York
Current Conditions -  °F | °C
As of 10:53 AM on Thursday 30 Oct 2014 (Local Time) from KPEO Reporting Station
Overcast Overcast  
Wind Chill: 41°   Ceiling: 2800
Heat Index: 45°   Visibility: 10mi
Dew Point: 34°   Wind: 8mph
Humidity: 65%   Direction: 300°WNW
Pressure: 30.05"   Gusts: NA
Location:  42.68°N, 76.82°W
Report Text: KPEO 301453Z AUTO 30007KT 10SM OVC028 07/01 A3005 RMK AO2 SLP182 T00720011 51010
Loading
Personal Weather Stations






























Interactive Weather Map
Tropical Storm Tracking
New forecast layout! Learn more

10-Day Weather Forecast

Advertisements
Track Severe Weather on mobile